sensor_id;sensor_type;location;lat;lon;timestamp;temperature;humidity
4795;DHT22;2411;47.060;15.064;2022-11-20T00:01:23;2.00;49.50
4795;DHT22;2411;47.060;15.064;2022-11-20T00:03:54;2.10;53.40
4795;DHT22;2411;47.060;15.064;2022-11-20T00:06:23;2.00;52.40
4795;DHT22;2411;47.060;15.064;2022-11-20T00:08:51;2.00;53.20
4795;DHT22;2411;47.060;15.064;2022-11-20T00:11:22;2.00;75.50
4795;DHT22;2411;47.060;15.064;2022-11-20T00:13:52;2.00;53.00
4795;DHT22;2411;47.060;15.064;2022-11-20T00:16:21;2.00;50.10
4795;DHT22;2411;47.060;15.064;2022-11-20T00:18:49;2.00;76.70
4795;DHT22;2411;47.060;15.064;2022-11-20T00:21:28;2.00;52.30
4795;DHT22;2411;47.060;15.064;2022-11-20T00:23:57;2.00;51.20
4795;DHT22;2411;47.060;15.064;2022-11-20T00:26:26;2.00;53.60
4795;DHT22;2411;47.060;15.064;2022-11-20T00:28:56;1.90;51.80
4795;DHT22;2411;47.060;15.064;2022-11-20T00:31:24;2.00;54.60
4795;DHT22;2411;47.060;15.064;2022-11-20T00:33:52;2.00;50.70
4795;DHT22;2411;47.060;15.064;2022-11-20T00:36:21;1.80;53.70
4795;DHT22;2411;47.060;15.064;2022-11-20T00:38:53;1.90;58.10
4795;DHT22;2411;47.060;15.064;2022-11-20T00:41:21;1.90;56.80
4795;DHT22;2411;47.060;15.064;2022-11-20T00:43:48;1.90;59.10
4795;DHT22;2411;47.060;15.064;2022-11-20T00:46:17;1.90;58.00
4795;DHT22;2411;47.060;15.064;2022-11-20T00:48:46;1.90;61.10
4795;DHT22;2411;47.060;15.064;2022-11-20T00:51:14;1.90;79.70
4795;DHT22;2411;47.060;15.064;2022-11-20T00:53:42;1.90;58.40
4795;DHT22;2411;47.060;15.064;2022-11-20T00:56:12;1.90;57.30
4795;DHT22;2411;47.060;15.064;2022-11-20T00:58:41;1.90;58.50
4795;DHT22;2411;47.060;15.064;2022-11-20T01:03:41;1.90;64.80
4795;DHT22;2411;47.060;15.064;2022-11-20T01:06:20;1.80;64.60
4795;DHT22;2411;47.060;15.064;2022-11-20T01:08:48;1.90;68.90
4795;DHT22;2411;47.060;15.064;2022-11-20T01:11:21;1.90;65.30
4795;DHT22;2411;47.060;15.064;2022-11-20T01:13:51;1.80;66.90
4795;DHT22;2411;47.060;15.064;2022-11-20T01:16:31;1.80;69.10
4795;DHT22;2411;47.060;15.064;2022-11-20T01:19:00;1.80;70.40
4795;DHT22;2411;47.060;15.064;2022-11-20T01:21:30;1.80;71.40
4795;DHT22;2411;47.060;15.064;2022-11-20T01:23:57;1.90;69.70
4795;DHT22;2411;47.060;15.064;2022-11-20T01:26:28;1.90;68.20
4795;DHT22;2411;47.060;15.064;2022-11-20T01:28:56;1.90;66.40
4795;DHT22;2411;47.060;15.064;2022-11-20T01:31:32;1.90;67.20
4795;DHT22;2411;47.060;15.064;2022-11-20T01:34:16;1.80;91.10
4795;DHT22;2411;47.060;15.064;2022-11-20T01:36:44;1.90;70.50
4795;DHT22;2411;47.060;15.064;2022-11-20T01:39:20;2.00;69.80
4795;DHT22;2411;47.060;15.064;2022-11-20T01:41:49;2.10;69.20
4795;DHT22;2411;47.060;15.064;2022-11-20T01:52:38;2.10;68.20
4795;DHT22;2411;47.060;15.064;2022-11-20T01:55:13;2.10;68.00
4795;DHT22;2411;47.060;15.064;2022-11-20T01:57:41;2.00;61.30
4795;DHT22;2411;47.060;15.064;2022-11-20T02:00:13;2.00;61.70
4795;DHT22;2411;47.060;15.064;2022-11-20T02:02:44;1.90;64.10
4795;DHT22;2411;47.060;15.064;2022-11-20T02:05:35;1.90;68.20
4795;DHT22;2411;47.060;15.064;2022-11-20T02:08:05;1.80;68.30
4795;DHT22;2411;47.060;15.064;2022-11-20T02:10:33;1.80;72.30
4795;DHT22;2411;47.060;15.064;2022-11-20T02:13:01;1.80;70.50
4795;DHT22;2411;47.060;15.064;2022-11-20T02:15:47;1.90;69.60
4795;DHT22;2411;47.060;15.064;2022-11-20T02:18:17;1.90;75.00
4795;DHT22;2411;47.060;15.064;2022-11-20T02:20:48;2.00;68.80
4795;DHT22;2411;47.060;15.064;2022-11-20T02:26:13;1.90;68.90
4795;DHT22;2411;47.060;15.064;2022-11-20T02:28:42;1.90;71.40
4795;DHT22;2411;47.060;15.064;2022-11-20T02:31:09;1.90;72.80
4795;DHT22;2411;47.060;15.064;2022-11-20T02:33:36;1.80;73.00
4795;DHT22;2411;47.060;15.064;2022-11-20T02:36:04;1.70;75.70
4795;DHT22;2411;47.060;15.064;2022-11-20T02:38:31;1.80;77.40
4795;DHT22;2411;47.060;15.064;2022-11-20T02:40:59;1.80;76.40
4795;DHT22;2411;47.060;15.064;2022-11-20T02:43:26;1.60;76.90
4795;DHT22;2411;47.060;15.064;2022-11-20T02:45:54;1.60;84.80
4795;DHT22;2411;47.060;15.064;2022-11-20T02:48:21;1.70;90.10
4795;DHT22;2411;47.060;15.064;2022-11-20T02:50:51;1.70;91.20
4795;DHT22;2411;47.060;15.064;2022-11-20T02:53:18;1.80;87.90
4795;DHT22;2411;47.060;15.064;2022-11-20T02:55:45;1.70;86.90
4795;DHT22;2411;47.060;15.064;2022-11-20T02:58:12;1.70;98.00
4795;DHT22;2411;47.060;15.064;2022-11-20T03:00:39;1.60;90.80
4795;DHT22;2411;47.060;15.064;2022-11-20T03:03:07;1.60;93.90
4795;DHT22;2411;47.060;15.064;2022-11-20T03:05:34;1.70;93.10
4795;DHT22;2411;47.060;15.064;2022-11-20T03:08:01;1.70;91.20
4795;DHT22;2411;47.060;15.064;2022-11-20T03:10:28;1.70;88.60
4795;DHT22;2411;47.060;15.064;2022-11-20T03:12:56;1.80;85.00
4795;DHT22;2411;47.060;15.064;2022-11-20T03:15:23;1.80;75.80
4795;DHT22;2411;47.060;15.064;2022-11-20T03:17:54;1.80;75.80
4795;DHT22;2411;47.060;15.064;2022-11-20T03:20:22;1.80;68.10
4795;DHT22;2411;47.060;15.064;2022-11-20T03:22:49;1.90;70.40
4795;DHT22;2411;47.060;15.064;2022-11-20T03:25:17;1.90;70.30
4795;DHT22;2411;47.060;15.064;2022-11-20T03:27:44;1.90;69.70
4795;DHT22;2411;47.060;15.064;2022-11-20T03:30:11;1.80;69.10
4795;DHT22;2411;47.060;15.064;2022-11-20T03:32:39;1.90;73.10
4795;DHT22;2411;47.060;15.064;2022-11-20T03:35:06;1.90;72.60
4795;DHT22;2411;47.060;15.064;2022-11-20T03:37:33;1.90;71.60
4795;DHT22;2411;47.060;15.064;2022-11-20T03:40:00;1.90;71.50
4795;DHT22;2411;47.060;15.064;2022-11-20T03:42:28;2.00;70.60
4795;DHT22;2411;47.060;15.064;2022-11-20T03:45:15;2.00;69.30
4795;DHT22;2411;47.060;15.064;2022-11-20T03:47:43;2.00;69.70
4795;DHT22;2411;47.060;15.064;2022-11-20T03:50:13;2.00;66.10
4795;DHT22;2411;47.060;15.064;2022-11-20T03:52:41;2.00;68.20
4795;DHT22;2411;47.060;15.064;2022-11-20T03:55:09;2.00;67.10
4795;DHT22;2411;47.060;15.064;2022-11-20T03:57:36;2.00;69.90
4795;DHT22;2411;47.060;15.064;2022-11-20T04:00:04;2.00;69.20
4795;DHT22;2411;47.060;15.064;2022-11-20T04:02:32;1.90;67.20
4795;DHT22;2411;47.060;15.064;2022-11-20T04:04:59;2.00;63.80
4795;DHT22;2411;47.060;15.064;2022-11-20T04:07:26;2.00;64.80
4795;DHT22;2411;47.060;15.064;2022-11-20T04:09:53;2.00;64.10
4795;DHT22;2411;47.060;15.064;2022-11-20T04:12:21;1.90;62.00
4795;DHT22;2411;47.060;15.064;2022-11-20T04:14:48;1.90;63.90
4795;DHT22;2411;47.060;15.064;2022-11-20T04:17:15;1.80;65.90
4795;DHT22;2411;47.060;15.064;2022-11-20T04:19:42;1.80;67.20
4795;DHT22;2411;47.060;15.064;2022-11-20T04:22:09;1.80;71.20
4795;DHT22;2411;47.060;15.064;2022-11-20T04:24:38;1.80;70.30
4795;DHT22;2411;47.060;15.064;2022-11-20T04:27:05;1.90;71.20
4795;DHT22;2411;47.060;15.064;2022-11-20T04:29:32;1.90;70.10
4795;DHT22;2411;47.060;15.064;2022-11-20T04:32:00;2.00;69.30
4795;DHT22;2411;47.060;15.064;2022-11-20T04:34:27;1.90;64.20
4795;DHT22;2411;47.060;15.064;2022-11-20T04:36:54;1.90;62.10
4795;DHT22;2411;47.060;15.064;2022-11-20T04:39:21;1.90;65.00
4795;DHT22;2411;47.060;15.064;2022-11-20T04:41:49;1.90;64.20
4795;DHT22;2411;47.060;15.064;2022-11-20T04:44:36;1.90;67.10
4795;DHT22;2411;47.060;15.064;2022-11-20T04:47:03;1.90;69.20
4795;DHT22;2411;47.060;15.064;2022-11-20T04:49:31;1.80;68.70
4795;DHT22;2411;47.060;15.064;2022-11-20T04:51:58;1.70;69.80
4795;DHT22;2411;47.060;15.064;2022-11-20T04:54:25;1.70;75.30
4795;DHT22;2411;47.060;15.064;2022-11-20T04:56:52;1.70;81.10
4795;DHT22;2411;47.060;15.064;2022-11-20T04:59:20;1.70;84.30
4795;DHT22;2411;47.060;15.064;2022-11-20T05:01:47;1.70;86.80
4795;DHT22;2411;47.060;15.064;2022-11-20T05:04:14;1.80;86.70
4795;DHT22;2411;47.060;15.064;2022-11-20T05:06:42;1.80;86.70
4795;DHT22;2411;47.060;15.064;2022-11-20T05:09:09;1.80;99.50
4795;DHT22;2411;47.060;15.064;2022-11-20T05:11:36;1.80;83.70
4795;DHT22;2411;47.060;15.064;2022-11-20T05:14:03;1.80;80.10
4795;DHT22;2411;47.060;15.064;2022-11-20T05:16:31;1.80;78.40
4795;DHT22;2411;47.060;15.064;2022-11-20T05:19:00;1.70;78.30
4795;DHT22;2411;47.060;15.064;2022-11-20T05:21:30;1.70;79.40
4795;DHT22;2411;47.060;15.064;2022-11-20T05:23:57;1.70;83.00
4795;DHT22;2411;47.060;15.064;2022-11-20T05:26:24;1.80;76.50
4795;DHT22;2411;47.060;15.064;2022-11-20T05:28:51;1.80;73.50
4795;DHT22;2411;47.060;15.064;2022-11-20T05:31:21;1.80;67.70
4795;DHT22;2411;47.060;15.064;2022-11-20T05:33:54;1.70;67.50
4795;DHT22;2411;47.060;15.064;2022-11-20T05:36:22;1.80;73.00
4795;DHT22;2411;47.060;15.064;2022-11-20T05:38:49;1.70;75.50
4795;DHT22;2411;47.060;15.064;2022-11-20T05:41:19;1.80;79.30
4795;DHT22;2411;47.060;15.064;2022-11-20T05:43:48;1.80;76.90
4795;DHT22;2411;47.060;15.064;2022-11-20T05:46:18;1.70;77.30
4795;DHT22;2411;47.060;15.064;2022-11-20T05:48:55;1.80;89.30
4795;DHT22;2411;47.060;15.064;2022-11-20T05:51:22;1.80;76.80
4795;DHT22;2411;47.060;15.064;2022-11-20T05:53:50;1.70;76.30
4795;DHT22;2411;47.060;15.064;2022-11-20T05:56:19;1.70;75.00
4795;DHT22;2411;47.060;15.064;2022-11-20T05:58:47;1.60;95.30
4795;DHT22;2411;47.060;15.064;2022-11-20T06:01:25;1.60;80.80
4795;DHT22;2411;47.060;15.064;2022-11-20T06:03:53;1.50;81.60
4795;DHT22;2411;47.060;15.064;2022-11-20T06:06:21;1.50;83.90
4795;DHT22;2411;47.060;15.064;2022-11-20T06:08:48;1.50;89.10
4795;DHT22;2411;47.060;15.064;2022-11-20T06:11:17;1.50;91.40
4795;DHT22;2411;47.060;15.064;2022-11-20T06:13:44;1.50;94.50
4795;DHT22;2411;47.060;15.064;2022-11-20T06:16:14;1.50;95.90
4795;DHT22;2411;47.060;15.064;2022-11-20T06:18:42;1.60;95.20
4795;DHT22;2411;47.060;15.064;2022-11-20T06:21:11;1.60;96.80
4795;DHT22;2411;47.060;15.064;2022-11-20T06:23:39;1.60;94.80
4795;DHT22;2411;47.060;15.064;2022-11-20T06:26:08;1.60;93.90
4795;DHT22;2411;47.060;15.064;2022-11-20T06:28:36;1.60;94.30
4795;DHT22;2411;47.060;15.064;2022-11-20T06:31:04;1.50;99.90
4795;DHT22;2411;47.060;15.064;2022-11-20T06:33:32;1.50;95.20
4795;DHT22;2411;47.060;15.064;2022-11-20T06:36:00;1.50;95.50
4795;DHT22;2411;47.060;15.064;2022-11-20T06:38:33;1.50;96.10
4795;DHT22;2411;47.060;15.064;2022-11-20T06:41:00;1.50;98.30
4795;DHT22;2411;47.060;15.064;2022-11-20T06:43:28;1.50;98.10
4795;DHT22;2411;47.060;15.064;2022-11-20T06:45:57;1.50;97.00
4795;DHT22;2411;47.060;15.064;2022-11-20T06:48:27;1.50;98.10
4795;DHT22;2411;47.060;15.064;2022-11-20T06:50:55;1.50;98.30
4795;DHT22;2411;47.060;15.064;2022-11-20T06:53:23;1.60;99.90
4795;DHT22;2411;47.060;15.064;2022-11-20T06:55:51;1.70;98.40
4795;DHT22;2411;47.060;15.064;2022-11-20T06:58:18;1.70;97.00
4795;DHT22;2411;47.060;15.064;2022-11-20T07:00:46;1.70;96.10
4795;DHT22;2411;47.060;15.064;2022-11-20T07:03:14;1.70;95.70
4795;DHT22;2411;47.060;15.064;2022-11-20T07:05:41;1.60;96.90
4795;DHT22;2411;47.060;15.064;2022-11-20T07:08:09;1.60;95.70
4795;DHT22;2411;47.060;15.064;2022-11-20T07:10:36;1.60;97.30
4795;DHT22;2411;47.060;15.064;2022-11-20T07:13:04;1.60;98.30
4795;DHT22;2411;47.060;15.064;2022-11-20T07:15:31;1.60;98.90
4795;DHT22;2411;47.060;15.064;2022-11-20T07:17:59;1.70;99.50
4795;DHT22;2411;47.060;15.064;2022-11-20T07:20:27;1.80;99.90
4795;DHT22;2411;47.060;15.064;2022-11-20T07:22:55;1.90;98.30
4795;DHT22;2411;47.060;15.064;2022-11-20T07:25:24;2.00;97.00
4795;DHT22;2411;47.060;15.064;2022-11-20T07:27:52;1.90;95.60
4795;DHT22;2411;47.060;15.064;2022-11-20T07:30:19;2.00;95.80
4795;DHT22;2411;47.060;15.064;2022-11-20T07:32:53;2.00;94.00
4795;DHT22;2411;47.060;15.064;2022-11-20T07:35:21;2.00;93.00
4795;DHT22;2411;47.060;15.064;2022-11-20T07:37:48;2.10;90.40
4795;DHT22;2411;47.060;15.064;2022-11-20T07:40:16;2.10;90.30
4795;DHT22;2411;47.060;15.064;2022-11-20T07:42:51;2.20;91.00
4795;DHT22;2411;47.060;15.064;2022-11-20T07:45:19;2.20;88.70
4795;DHT22;2411;47.060;15.064;2022-11-20T07:47:47;2.30;88.50
4795;DHT22;2411;47.060;15.064;2022-11-20T07:50:14;2.30;91.40
4795;DHT22;2411;47.060;15.064;2022-11-20T07:52:42;2.30;88.70
4795;DHT22;2411;47.060;15.064;2022-11-20T07:55:10;2.40;87.80
4795;DHT22;2411;47.060;15.064;2022-11-20T07:57:37;2.40;86.00
4795;DHT22;2411;47.060;15.064;2022-11-20T08:00:07;2.40;83.50
4795;DHT22;2411;47.060;15.064;2022-11-20T08:02:40;2.50;83.20
4795;DHT22;2411;47.060;15.064;2022-11-20T08:05:09;2.50;82.70
4795;DHT22;2411;47.060;15.064;2022-11-20T08:07:41;2.50;77.70
4795;DHT22;2411;47.060;15.064;2022-11-20T08:10:11;2.50;75.20
4795;DHT22;2411;47.060;15.064;2022-11-20T08:12:52;2.60;78.00
4795;DHT22;2411;47.060;15.064;2022-11-20T08:15:39;2.60;81.90
4795;DHT22;2411;47.060;15.064;2022-11-20T08:18:11;2.70;79.30
4795;DHT22;2411;47.060;15.064;2022-11-20T08:21:02;2.70;80.50
4795;DHT22;2411;47.060;15.064;2022-11-20T08:23:29;2.60;74.40
4795;DHT22;2411;47.060;15.064;2022-11-20T08:25:57;2.70;75.80
4795;DHT22;2411;47.060;15.064;2022-11-20T08:28:24;2.80;73.40
4795;DHT22;2411;47.060;15.064;2022-11-20T08:30:51;2.90;71.00
4795;DHT22;2411;47.060;15.064;2022-11-20T08:33:24;3.00;76.80
4795;DHT22;2411;47.060;15.064;2022-11-20T08:35:51;3.00;74.70
4795;DHT22;2411;47.060;15.064;2022-11-20T08:38:18;3.10;71.60
4795;DHT22;2411;47.060;15.064;2022-11-20T08:40:45;3.00;68.90
4795;DHT22;2411;47.060;15.064;2022-11-20T08:43:32;3.00;69.30
4795;DHT22;2411;47.060;15.064;2022-11-20T08:46:00;3.00;68.90
4795;DHT22;2411;47.060;15.064;2022-11-20T08:48:27;3.00;74.60
4795;DHT22;2411;47.060;15.064;2022-11-20T08:50:58;3.20;78.90
4795;DHT22;2411;47.060;15.064;2022-11-20T08:53:27;3.30;63.80
4795;DHT22;2411;47.060;15.064;2022-11-20T08:55:54;3.30;54.20
4795;DHT22;2411;47.060;15.064;2022-11-20T08:58:21;3.30;55.70
4795;DHT22;2411;47.060;15.064;2022-11-20T09:00:48;3.40;55.70
4795;DHT22;2411;47.060;15.064;2022-11-20T09:03:16;3.50;59.70
4795;DHT22;2411;47.060;15.064;2022-11-20T09:05:43;3.60;58.90
4795;DHT22;2411;47.060;15.064;2022-11-20T09:08:10;3.60;58.40
4795;DHT22;2411;47.060;15.064;2022-11-20T09:10:37;3.60;57.50
4795;DHT22;2411;47.060;15.064;2022-11-20T09:13:07;3.70;57.80
4795;DHT22;2411;47.060;15.064;2022-11-20T09:15:34;3.80;52.30
4795;DHT22;2411;47.060;15.064;2022-11-20T09:18:02;3.80;50.20
4795;DHT22;2411;47.060;15.064;2022-11-20T09:20:31;3.90;50.80
4795;DHT22;2411;47.060;15.064;2022-11-20T09:22:58;4.00;44.20
4795;DHT22;2411;47.060;15.064;2022-11-20T09:25:26;4.20;43.10
4795;DHT22;2411;47.060;15.064;2022-11-20T09:27:58;4.10;40.00
4795;DHT22;2411;47.060;15.064;2022-11-20T09:30:26;4.00;37.10
4795;DHT22;2411;47.060;15.064;2022-11-20T09:32:53;4.00;35.80
4795;DHT22;2411;47.060;15.064;2022-11-20T09:35:21;4.10;38.40
4795;DHT22;2411;47.060;15.064;2022-11-20T09:37:48;4.10;37.20
4795;DHT22;2411;47.060;15.064;2022-11-20T09:40:25;4.10;35.90
4795;DHT22;2411;47.060;15.064;2022-11-20T09:43:12;4.20;36.20
4795;DHT22;2411;47.060;15.064;2022-11-20T09:46:20;4.40;32.10
4795;DHT22;2411;47.060;15.064;2022-11-20T09:54:31;5.00;30.80
4795;DHT22;2411;47.060;15.064;2022-11-20T09:57:05;5.00;30.20
4795;DHT22;2411;47.060;15.064;2022-11-20T09:59:39;5.10;33.20
4795;DHT22;2411;47.060;15.064;2022-11-20T10:02:30;5.20;31.50
4795;DHT22;2411;47.060;15.064;2022-11-20T10:07:36;5.20;31.50
4795;DHT22;2411;47.060;15.064;2022-11-20T10:10:05;5.20;30.10
4795;DHT22;2411;47.060;15.064;2022-11-20T10:28:27;5.90;26.00
4795;DHT22;2411;47.060;15.064;2022-11-20T10:31:01;6.20;28.10
4795;DHT22;2411;47.060;15.064;2022-11-20T10:33:39;6.20;26.30
4795;DHT22;2411;47.060;15.064;2022-11-20T10:36:34;6.40;26.50
4795;DHT22;2411;47.060;15.064;2022-11-20T10:39:40;6.60;26.00
4795;DHT22;2411;47.060;15.064;2022-11-20T10:42:11;6.60;25.50
4795;DHT22;2411;47.060;15.064;2022-11-20T10:44:39;6.60;24.40
4795;DHT22;2411;47.060;15.064;2022-11-20T10:47:32;6.80;25.00
4795;DHT22;2411;47.060;15.064;2022-11-20T10:50:04;6.80;23.70
4795;DHT22;2411;47.060;15.064;2022-11-20T10:52:48;7.10;23.90
4795;DHT22;2411;47.060;15.064;2022-11-20T10:55:31;7.30;24.10
4795;DHT22;2411;47.060;15.064;2022-11-20T11:00:52;7.40;22.80
4795;DHT22;2411;47.060;15.064;2022-11-20T11:03:29;7.20;20.80
4795;DHT22;2411;47.060;15.064;2022-11-20T11:06:08;7.40;22.00
4795;DHT22;2411;47.060;15.064;2022-11-20T11:08:40;7.60;21.40
4795;DHT22;2411;47.060;15.064;2022-11-20T11:11:21;7.50;20.30
4795;DHT22;2411;47.060;15.064;2022-11-20T11:13:50;7.70;21.40
4795;DHT22;2411;47.060;15.064;2022-11-20T11:16:26;7.70;21.00
4795;DHT22;2411;47.060;15.064;2022-11-20T11:19:12;7.80;22.10
4795;DHT22;2411;47.060;15.064;2022-11-20T11:21:53;7.70;21.50
4795;DHT22;2411;47.060;15.064;2022-11-20T11:24:28;7.60;19.30
4795;DHT22;2411;47.060;15.064;2022-11-20T11:27:13;7.70;19.90
4795;DHT22;2411;47.060;15.064;2022-11-20T11:29:44;7.80;21.00
4795;DHT22;2411;47.060;15.064;2022-11-20T11:32:14;8.00;36.80
4795;DHT22;2411;47.060;15.064;2022-11-20T11:34:42;7.90;20.40
4795;DHT22;2411;47.060;15.064;2022-11-20T11:37:17;7.80;20.20
4795;DHT22;2411;47.060;15.064;2022-11-20T11:39:46;7.70;19.40
4795;DHT22;2411;47.060;15.064;2022-11-20T11:42:30;7.60;19.50
4795;DHT22;2411;47.060;15.064;2022-11-20T11:44:59;7.60;19.50
4795;DHT22;2411;47.060;15.064;2022-11-20T11:47:46;7.30;17.30
4795;DHT22;2411;47.060;15.064;2022-11-20T11:50:18;7.10;17.00
4795;DHT22;2411;47.060;15.064;2022-11-20T11:53:13;6.90;16.40
4795;DHT22;2411;47.060;15.064;2022-11-20T11:55:58;6.60;15.60
4795;DHT22;2411;47.060;15.064;2022-11-20T12:04:40;6.30;15.00
4795;DHT22;2411;47.060;15.064;2022-11-20T12:07:16;6.20;14.50
4795;DHT22;2411;47.060;15.064;2022-11-20T12:13:08;6.20;15.40
4795;DHT22;2411;47.060;15.064;2022-11-20T12:15:40;6.20;15.00
4795;DHT22;2411;47.060;15.064;2022-11-20T12:18:16;6.10;15.10
4795;DHT22;2411;47.060;15.064;2022-11-20T12:21:03;6.10;15.20
4795;DHT22;2411;47.060;15.064;2022-11-20T12:47:59;6.40;13.90
4795;DHT22;2411;47.060;15.064;2022-11-20T12:51:03;6.30;14.50
4795;DHT22;2411;47.060;15.064;2022-11-20T13:02:25;6.50;13.90
4795;DHT22;2411;47.060;15.064;2022-11-20T13:07:43;6.40;13.70
4795;DHT22;2411;47.060;15.064;2022-11-20T13:10:30;6.50;14.20
4795;DHT22;2411;47.060;15.064;2022-11-20T13:13:33;6.50;13.90
4795;DHT22;2411;47.060;15.064;2022-11-20T13:18:41;6.60;14.40
4795;DHT22;2411;47.060;15.064;2022-11-20T13:21:43;6.70;14.50
4795;DHT22;2411;47.060;15.064;2022-11-20T13:26:47;6.50;14.20
4795;DHT22;2411;47.060;15.064;2022-11-20T13:29:18;6.50;13.90
4795;DHT22;2411;47.060;15.064;2022-11-20T13:31:49;6.40;13.00
4795;DHT22;2411;47.060;15.064;2022-11-20T13:34:34;6.40;13.00
4795;DHT22;2411;47.060;15.064;2022-11-20T13:37:03;6.40;13.90
4795;DHT22;2411;47.060;15.064;2022-11-20T13:39:34;6.50;13.90
4795;DHT22;2411;47.060;15.064;2022-11-20T13:44:47;6.40;13.90
4795;DHT22;2411;47.060;15.064;2022-11-20T13:47:23;6.40;14.50
4795;DHT22;2411;47.060;15.064;2022-11-20T13:49:52;6.40;13.40
4795;DHT22;2411;47.060;15.064;2022-11-20T13:56:36;6.20;14.00
4795;DHT22;2411;47.060;15.064;2022-11-20T14:01:54;5.80;13.60
4795;DHT22;2411;47.060;15.064;2022-11-20T14:04:29;5.60;14.80
4795;DHT22;2411;47.060;15.064;2022-11-20T14:06:57;5.50;14.70
4795;DHT22;2411;47.060;15.064;2022-11-20T14:09:32;5.30;16.00
4795;DHT22;2411;47.060;15.064;2022-11-20T14:12:01;5.20;15.40
4795;DHT22;2411;47.060;15.064;2022-11-20T14:14:30;5.30;16.60
4795;DHT22;2411;47.060;15.064;2022-11-20T14:17:09;5.30;16.30
4795;DHT22;2411;47.060;15.064;2022-11-20T14:19:45;5.30;16.40
4795;DHT22;2411;47.060;15.064;2022-11-20T14:22:24;5.40;17.10
4795;DHT22;2411;47.060;15.064;2022-11-20T14:27:43;5.40;15.80
4795;DHT22;2411;47.060;15.064;2022-11-20T14:30:20;5.30;16.10
4795;DHT22;2411;47.060;15.064;2022-11-20T14:32:48;5.30;16.50
4795;DHT22;2411;47.060;15.064;2022-11-20T14:35:24;5.20;16.50
4795;DHT22;2411;47.060;15.064;2022-11-20T14:37:53;5.10;17.10
4795;DHT22;2411;47.060;15.064;2022-11-20T14:40:41;4.90;17.70
4795;DHT22;2411;47.060;15.064;2022-11-20T14:43:19;4.70;17.10
4795;DHT22;2411;47.060;15.064;2022-11-20T14:45:59;4.70;18.90
4795;DHT22;2411;47.060;15.064;2022-11-20T14:48:33;4.60;18.50
4795;DHT22;2411;47.060;15.064;2022-11-20T14:51:01;4.60;18.50
4795;DHT22;2411;47.060;15.064;2022-11-20T14:53:28;4.50;19.10
4795;DHT22;2411;47.060;15.064;2022-11-20T14:56:00;4.40;19.60
4795;DHT22;2411;47.060;15.064;2022-11-20T14:58:30;4.30;19.90
4795;DHT22;2411;47.060;15.064;2022-11-20T15:01:06;4.30;20.10
4795;DHT22;2411;47.060;15.064;2022-11-20T15:03:37;4.20;21.00
4795;DHT22;2411;47.060;15.064;2022-11-20T15:06:11;4.20;19.70
4795;DHT22;2411;47.060;15.064;2022-11-20T15:08:38;4.00;20.70
4795;DHT22;2411;47.060;15.064;2022-11-20T15:11:25;4.00;21.30
4795;DHT22;2411;47.060;15.064;2022-11-20T15:13:54;3.80;21.20
4795;DHT22;2411;47.060;15.064;2022-11-20T15:16:23;3.70;21.90
4795;DHT22;2411;47.060;15.064;2022-11-20T15:18:50;3.60;21.90
4795;DHT22;2411;47.060;15.064;2022-11-20T15:21:19;3.60;24.20
4795;DHT22;2411;47.060;15.064;2022-11-20T15:23:48;3.60;28.30
4795;DHT22;2411;47.060;15.064;2022-11-20T15:26:23;3.60;29.70
4795;DHT22;2411;47.060;15.064;2022-11-20T15:28:52;3.60;32.80
4795;DHT22;2411;47.060;15.064;2022-11-20T15:31:22;3.50;32.50
4795;DHT22;2411;47.060;15.064;2022-11-20T15:33:49;3.50;33.50
4795;DHT22;2411;47.060;15.064;2022-11-20T15:36:16;3.40;31.00
4795;DHT22;2411;47.060;15.064;2022-11-20T15:38:44;3.40;33.60
4795;DHT22;2411;47.060;15.064;2022-11-20T15:41:11;3.40;31.80
4795;DHT22;2411;47.060;15.064;2022-11-20T15:43:38;3.30;31.90
4795;DHT22;2411;47.060;15.064;2022-11-20T15:46:10;3.30;32.50
4795;DHT22;2411;47.060;15.064;2022-11-20T15:48:38;3.30;33.70
4795;DHT22;2411;47.060;15.064;2022-11-20T15:53:46;3.40;34.50
4795;DHT22;2411;47.060;15.064;2022-11-20T15:56:14;3.40;31.00
4795;DHT22;2411;47.060;15.064;2022-11-20T15:58:41;3.30;31.00
4795;DHT22;2411;47.060;15.064;2022-11-20T16:01:14;3.10;28.00
4795;DHT22;2411;47.060;15.064;2022-11-20T16:03:42;3.00;27.90
4795;DHT22;2411;47.060;15.064;2022-11-20T16:06:09;2.90;29.30
4795;DHT22;2411;47.060;15.064;2022-11-20T16:08:36;2.80;30.10
4795;DHT22;2411;47.060;15.064;2022-11-20T16:11:04;2.70;29.70
4795;DHT22;2411;47.060;15.064;2022-11-20T16:13:31;2.60;28.20
4795;DHT22;2411;47.060;15.064;2022-11-20T16:16:23;2.50;27.70
4795;DHT22;2411;47.060;15.064;2022-11-20T16:18:52;2.40;26.70
4795;DHT22;2411;47.060;15.064;2022-11-20T16:21:19;2.30;33.90
4795;DHT22;2411;47.060;15.064;2022-11-20T16:23:47;2.30;33.30
4795;DHT22;2411;47.060;15.064;2022-11-20T16:26:16;2.20;36.60
4795;DHT22;2411;47.060;15.064;2022-11-20T16:28:47;2.20;42.30
4795;DHT22;2411;47.060;15.064;2022-11-20T16:31:16;2.20;52.60
4795;DHT22;2411;47.060;15.064;2022-11-20T16:33:49;2.30;53.60
4795;DHT22;2411;47.060;15.064;2022-11-20T16:36:18;2.40;51.20
4795;DHT22;2411;47.060;15.064;2022-11-20T16:38:45;2.40;47.80
4795;DHT22;2411;47.060;15.064;2022-11-20T16:41:12;2.40;47.40
4795;DHT22;2411;47.060;15.064;2022-11-20T16:43:47;2.40;43.10
4795;DHT22;2411;47.060;15.064;2022-11-20T16:46:16;2.20;38.80
4795;DHT22;2411;47.060;15.064;2022-11-20T16:48:44;2.10;32.10
4795;DHT22;2411;47.060;15.064;2022-11-20T16:51:12;2.00;30.90
4795;DHT22;2411;47.060;15.064;2022-11-20T16:53:39;1.80;30.80
4795;DHT22;2411;47.060;15.064;2022-11-20T16:56:10;1.80;31.50
4795;DHT22;2411;47.060;15.064;2022-11-20T16:58:39;1.80;39.20
4795;DHT22;2411;47.060;15.064;2022-11-20T17:01:07;1.80;46.80
4795;DHT22;2411;47.060;15.064;2022-11-20T17:03:37;1.90;52.90
4795;DHT22;2411;47.060;15.064;2022-11-20T17:06:16;1.90;47.80
4795;DHT22;2411;47.060;15.064;2022-11-20T17:08:43;2.10;51.50
4795;DHT22;2411;47.060;15.064;2022-11-20T17:11:13;2.10;68.50
4795;DHT22;2411;47.060;15.064;2022-11-20T17:13:41;2.10;41.00
4795;DHT22;2411;47.060;15.064;2022-11-20T17:16:14;1.90;57.60
4795;DHT22;2411;47.060;15.064;2022-11-20T17:18:43;1.90;42.70
4795;DHT22;2411;47.060;15.064;2022-11-20T17:21:11;1.80;41.80
4795;DHT22;2411;47.060;15.064;2022-11-20T17:23:41;1.80;46.60
4795;DHT22;2411;47.060;15.064;2022-11-20T17:28:37;1.80;51.40
4795;DHT22;2411;47.060;15.064;2022-11-20T17:31:07;1.80;54.10
4795;DHT22;2411;47.060;15.064;2022-11-20T17:33:36;1.80;44.00
4795;DHT22;2411;47.060;15.064;2022-11-20T17:36:05;1.60;60.00
4795;DHT22;2411;47.060;15.064;2022-11-20T17:38:33;1.50;50.50
4795;DHT22;2411;47.060;15.064;2022-11-20T17:41:07;1.60;56.60
4795;DHT22;2411;47.060;15.064;2022-11-20T17:43:35;1.70;61.30
4795;DHT22;2411;47.060;15.064;2022-11-20T17:46:07;1.80;54.30
4795;DHT22;2411;47.060;15.064;2022-11-20T17:48:35;1.90;57.20
4795;DHT22;2411;47.060;15.064;2022-11-20T17:51:05;2.10;58.40
4795;DHT22;2411;47.060;15.064;2022-11-20T17:53:37;2.10;51.20
4795;DHT22;2411;47.060;15.064;2022-11-20T17:56:06;1.80;38.90
4795;DHT22;2411;47.060;15.064;2022-11-20T17:58:52;1.80;36.50
4795;DHT22;2411;47.060;15.064;2022-11-20T18:01:19;1.80;38.50
4795;DHT22;2411;47.060;15.064;2022-11-20T18:03:47;1.80;38.70
4795;DHT22;2411;47.060;15.064;2022-11-20T18:06:19;1.90;44.70
4795;DHT22;2411;47.060;15.064;2022-11-20T18:08:48;2.00;45.80
4795;DHT22;2411;47.060;15.064;2022-11-20T18:13:47;2.10;43.10
4795;DHT22;2411;47.060;15.064;2022-11-20T18:16:36;2.00;42.60
4795;DHT22;2411;47.060;15.064;2022-11-20T18:19:03;1.90;37.90